Time;durP1;ratioP1;P1;durP2;ratioP2;P2;SDS_P1;SDS_P2;PMS_P1;PMS_P2;Temp;Humidity;BMP_temperature;BMP_pressure;BME280_temperature;BME280_humidity;BME280_pressure;Samples;Min_cycle;Max_cycle;Signal;HPM_P1;HPM_P2
2021/11/21 00:00:00;;;;;;;13.60;5.20;;;;;;;4.90;75.26;98851.91;106334;1313;137629;-54
2021/11/21 00:02:32;;;;;;;12.70;4.80;;;;;;;4.90;75.21;98850.09;106422;1317;22430;-54
2021/11/21 00:05:00;;;;;;;15.80;4.90;;;;;;;4.88;75.19;98855.66;105405;1323;22643;-54
2021/11/21 00:07:28;;;;;;;18.60;4.80;;;;;;;4.85;74.87;98854.67;106207;1312;137631;-54
2021/11/21 00:09:57;;;;;;;13.10;4.90;;;;;;;4.83;75.15;98855.02;106392;1316;22454;-54
2021/11/21 00:12:25;;;;;;;15.40;4.70;;;;;;;4.81;75.07;98855.61;105977;1313;137481;-54
2021/11/21 00:14:54;;;;;;;15.50;4.60;;;;;;;4.78;75.26;98856.39;106227;1315;22407;-54
2021/11/21 00:17:22;;;;;;;18.70;5.30;;;;;;;4.73;75.46;98856.57;106311;1315;23269;-54
2021/11/21 00:19:50;;;;;;;13.20;5.10;;;;;;;4.74;75.47;98861.50;106183;1316;137266;-54
2021/11/21 00:22:18;;;;;;;18.40;5.40;;;;;;;4.72;75.67;98870.42;106275;1317;22418;-54
2021/11/21 00:24:46;;;;;;;15.20;6.10;;;;;;;4.70;75.76;98866.59;106224;1315;143273;-54
2021/11/21 00:27:15;;;;;;;14.40;5.30;;;;;;;4.71;76.11;98865.16;106217;1316;22473;-54
2021/11/21 00:29:43;;;;;;;13.30;4.50;;;;;;;4.70;75.95;98864.27;106178;1316;137721;-54
2021/11/21 00:32:11;;;;;;;13.80;5.10;;;;;;;4.71;76.31;98866.66;106180;1316;23154;-54
2021/11/21 00:34:41;;;;;;;14.40;4.70;;;;;;;4.71;76.48;98858.95;106170;1315;22519;-55
2021/11/21 00:37:10;;;;;;;14.80;5.80;;;;;;;4.72;76.36;98860.05;106189;1316;137913;-54
2021/11/21 00:39:38;;;;;;;21.20;7.10;;;;;;;4.73;76.86;98853.98;106282;1320;23855;-55
2021/11/21 00:42:07;;;;;;;19.40;7.20;;;;;;;4.74;77.01;98848.83;106192;1313;137581;-55
2021/11/21 00:44:35;;;;;;;17.90;6.60;;;;;;;4.75;77.17;98839.21;106313;1316;22486;-55
2021/11/21 00:47:03;;;;;;;15.90;6.20;;;;;;;4.76;77.17;98843.52;106154;1316;22407;-55
2021/11/21 00:49:32;;;;;;;17.30;7.40;;;;;;;4.81;77.36;98842.27;106022;1318;138335;-55
2021/11/21 00:52:00;;;;;;;18.00;7.30;;;;;;;4.83;77.55;98845.08;106280;1316;22606;-55
2021/11/21 00:54:41;;;;;;;20.40;7.10;;;;;;;4.85;77.58;98837.03;105532;1315;137988;-55
2021/11/21 00:57:09;;;;;;;16.70;6.50;;;;;;;4.87;77.46;98835.39;106298;1316;22445;-55
2021/11/21 00:59:37;;;;;;;17.90;6.10;;;;;;;4.88;78.03;98827.72;106155;1316;137661;-55
2021/11/21 01:02:09;;;;;;;20.00;5.90;;;;;;;4.90;78.00;98822.02;106283;1316;22465;-55
2021/11/21 01:04:39;;;;;;;16.20;5.70;;;;;;;4.93;78.12;98817.85;106254;1316;22582;-55
2021/11/21 01:07:08;;;;;;;15.60;5.80;;;;;;;4.95;78.10;98817.26;106157;1316;137678;-55
2021/11/21 01:09:38;;;;;;;19.60;6.20;;;;;;;4.97;78.25;98814.77;106274;1316;22512;-55
2021/11/21 01:12:07;;;;;;;13.30;5.50;;;;;;;4.99;78.59;98810.00;106201;1315;138301;-55
2021/11/21 01:14:36;;;;;;;14.40;6.10;;;;;;;5.02;78.51;98807.52;106300;1316;22395;-56
2021/11/21 01:17:05;;;;;;;14.60;6.40;;;;;;;5.03;78.85;98800.91;106147;1316;22610;-55
2021/11/21 01:19:34;;;;;;;16.10;5.70;;;;;;;5.04;78.57;98795.78;105689;1316;139806;-55
2021/11/21 01:22:03;;;;;;;17.90;6.40;;;;;;;5.08;78.75;98785.48;106310;1315;22398;-55
2021/11/21 01:24:32;;;;;;;11.90;5.50;;;;;;;5.11;78.68;98785.54;106156;1315;139140;-55
2021/11/21 01:27:00;;;;;;;12.80;5.50;;;;;;;5.13;79.13;98787.27;106283;1316;22740;-55
2021/11/21 01:29:29;;;;;;;15.30;6.10;;;;;;;5.15;79.25;98782.95;106276;1315;22447;-55
2021/11/21 01:31:57;;;;;;;16.80;6.00;;;;;;;5.17;79.23;98780.17;106100;1316;137536;-55
2021/11/21 01:34:26;;;;;;;13.00;5.80;;;;;;;5.19;78.97;98781.40;106212;1316;22476;-55
2021/11/21 01:36:56;;;;;;;16.00;5.80;;;;;;;5.21;78.80;98776.54;106065;1316;138565;-55
2021/11/21 01:39:25;;;;;;;14.90;5.90;;;;;;;5.22;79.19;98777.44;105742;1316;22582;-53
2021/11/21 01:41:54;;;;;;;11.60;5.10;;;;;;;5.23;79.30;98774.98;102108;1315;137731;-52
2021/11/21 01:44:22;;;;;;;14.30;6.00;;;;;;;5.25;79.35;98776.58;102263;1320;22991;-53
2021/11/21 01:46:51;;;;;;;17.80;6.40;;;;;;;5.26;79.54;98775.86;102273;1315;24306;-53
2021/11/21 01:49:20;;;;;;;14.80;7.30;;;;;;;5.28;79.67;98769.46;102101;1315;138436;-55
2021/11/21 01:51:49;;;;;;;13.90;6.40;;;;;;;5.30;80.08;98765.06;106201;1315;23270;-54
2021/11/21 01:54:18;;;;;;;16.30;7.10;;;;;;;5.32;79.78;98762.90;105903;1316;137695;-54
2021/11/21 01:56:46;;;;;;;17.30;6.00;;;;;;;5.34;79.90;98760.33;106292;1315;22625;-54
2021/11/21 01:59:15;;;;;;;17.40;7.30;;;;;;;5.37;80.38;98759.23;106276;1316;22501;-55
2021/11/21 02:01:43;;;;;;;13.40;6.30;;;;;;;5.39;80.68;98752.59;106131;1316;138149;-55
2021/11/21 02:04:12;;;;;;;10.80;5.90;;;;;;;5.42;80.83;98751.23;106263;1316;23115;-54
2021/11/21 02:06:40;;;;;;;16.30;6.20;;;;;;;5.44;80.47;98750.35;106207;1315;138502;-59
2021/11/21 02:09:09;;;;;;;14.70;7.70;;;;;;;5.48;81.05;98749.61;106282;1316;22421;-55
2021/11/21 02:11:37;;;;;;;16.70;7.20;;;;;;;5.50;80.79;98750.23;106171;1315;140011;-54
2021/11/21 02:14:05;;;;;;;13.80;7.10;;;;;;;5.53;81.01;98750.02;106318;1316;22528;-54
2021/11/21 02:16:35;;;;;;;16.60;7.20;;;;;;;5.56;81.58;98750.61;106247;1316;23257;-54
2021/11/21 02:19:04;;;;;;;12.40;6.80;;;;;;;5.59;81.35;98747.38;106166;1316;138671;-54
2021/11/21 02:21:32;;;;;;;14.10;7.60;;;;;;;5.62;81.79;98742.88;106167;1316;22482;-54
2021/11/21 02:24:01;;;;;;;20.00;7.10;;;;;;;5.66;81.50;98742.17;106158;1316;138733;-54
2021/11/21 02:26:29;;;;;;;15.20;6.60;;;;;;;5.68;81.81;98740.60;106294;1313;22458;-54
2021/11/21 02:28:57;;;;;;;11.80;7.10;;;;;;;5.72;82.01;98739.63;106175;1316;22563;-54
2021/11/21 02:31:29;;;;;;;17.50;7.40;;;;;;;5.75;82.27;98742.93;105769;1316;138429;-54
2021/11/21 02:33:57;;;;;;;12.00;6.70;;;;;;;5.78;82.34;98739.07;106337;1316;22520;-54
2021/11/21 02:36:26;;;;;;;13.10;6.80;;;;;;;5.81;82.45;98741.39;106044;1315;137862;-55
2021/11/21 02:38:54;;;;;;;13.00;7.20;;;;;;;5.83;82.45;98740.25;106292;1316;22691;-54
2021/11/21 02:41:23;;;;;;;9.80;6.00;;;;;;;5.86;82.64;98737.48;102469;1316;24306;-53
2021/11/21 02:43:51;;;;;;;12.60;6.80;;;;;;;5.89;82.84;98733.57;106171;1316;138594;-54
2021/11/21 02:46:19;;;;;;;11.80;6.70;;;;;;;5.92;82.95;98726.63;106314;1316;22452;-55
2021/11/21 02:48:48;;;;;;;13.00;7.10;;;;;;;5.93;83.08;98717.88;106173;1315;137669;-54
2021/11/21 02:51:16;;;;;;;16.70;8.00;;;;;;;5.95;82.81;98716.17;106244;1315;22552;-54
2021/11/21 02:53:45;;;;;;;16.20;7.30;;;;;;;5.95;83.03;98710.56;106196;1315;137778;-54
2021/11/21 02:56:15;;;;;;;12.10;7.10;;;;;;;5.99;83.00;98711.76;106277;1316;22459;-54
2021/11/21 02:58:44;;;;;;;15.80;7.80;;;;;;;6.01;82.93;98703.46;106208;1315;22425;-54
2021/11/21 03:01:22;;;;;;;14.50;7.60;;;;;;;6.03;83.09;98697.92;106122;1313;137782;-54
2021/11/21 03:03:51;;;;;;;11.70;7.20;;;;;;;6.06;82.92;98698.88;106183;1316;22605;-54
2021/11/21 03:06:20;;;;;;;13.40;7.90;;;;;;;6.07;83.27;98693.14;106214;1315;140928;-54
2021/11/21 03:08:49;;;;;;;18.60;7.40;;;;;;;6.08;83.08;98702.08;106181;1315;22470;-53
2021/11/21 03:11:20;;;;;;;14.00;7.60;;;;;;;6.09;82.92;98696.96;106276;1315;23126;-53
2021/11/21 03:13:49;;;;;;;11.40;7.00;;;;;;;6.10;83.40;98696.33;106171;1313;138202;-53
2021/11/21 03:16:18;;;;;;;12.30;7.50;;;;;;;6.12;82.92;98696.95;106275;1315;22448;-53
2021/11/21 03:18:46;;;;;;;12.70;7.80;;;;;;;6.13;83.05;98694.83;106095;1316;137960;-53
2021/11/21 03:21:14;;;;;;;11.80;7.30;;;;;;;6.15;82.90;98692.45;106194;1315;22408;-53
2021/11/21 03:23:43;;;;;;;16.20;7.90;;;;;;;6.15;82.98;98690.45;106114;1315;138571;-53
2021/11/21 03:26:12;;;;;;;15.00;7.20;;;;;;;6.15;83.09;98697.06;105744;1316;22469;-53
2021/11/21 03:28:40;;;;;;;10.90;7.10;;;;;;;6.14;83.39;98693.64;106200;1315;22467;-53
2021/11/21 03:31:09;;;;;;;11.70;7.70;;;;;;;6.17;83.61;98703.64;106172;1316;139555;-53
2021/11/21 03:33:39;;;;;;;14.40;7.50;;;;;;;6.16;83.49;98705.52;106308;1315;22634;-52
2021/11/21 03:36:07;;;;;;;13.60;7.10;;;;;;;6.18;83.64;98712.47;106047;1315;138298;-53
2021/11/21 03:38:36;;;;;;;14.90;8.10;;;;;;;6.18;83.63;98714.20;106302;1315;22483;-53
2021/11/21 03:41:04;;;;;;;11.30;7.50;;;;;;;6.19;83.79;98713.14;106190;1315;23381;-52
2021/11/21 03:43:32;;;;;;;11.20;7.90;;;;;;;6.20;84.01;98714.98;106049;1315;137784;-53
2021/11/21 03:46:02;;;;;;;13.40;7.70;;;;;;;6.22;84.15;98714.51;105660;1315;22941;-53
2021/11/21 03:48:31;;;;;;;13.60;7.80;;;;;;;6.24;83.87;98718.00;106092;1316;139850;-53
2021/11/21 03:50:59;;;;;;;13.20;8.00;;;;;;;6.25;83.91;98714.98;106310;1315;23742;-53
2021/11/21 03:53:27;;;;;;;10.40;7.80;;;;;;;6.28;83.99;98713.89;106284;1316;22456;-53
2021/11/21 03:55:56;;;;;;;16.80;7.70;;;;;;;6.30;83.92;98712.59;106176;1315;137667;-53
2021/11/21 03:58:24;;;;;;;11.00;7.60;;;;;;;6.32;84.19;98710.77;106313;1315;22465;-53
2021/11/21 04:00:53;;;;;;;12.70;8.50;;;;;;;6.33;84.27;98713.17;106184;1316;137739;-53
2021/11/21 04:03:21;;;;;;;15.00;8.70;;;;;;;6.36;84.06;98710.70;106169;1318;24865;-53
2021/11/21 04:05:49;;;;;;;12.40;8.40;;;;;;;6.37;84.61;98709.20;106076;1315;137899;-53
2021/11/21 04:08:17;;;;;;;11.60;8.20;;;;;;;6.39;84.58;98705.83;105595;1316;22489;-53
2021/11/21 04:10:46;;;;;;;12.30;8.40;;;;;;;6.42;84.54;98705.75;106274;1316;22468;-53
2021/11/21 04:13:14;;;;;;;13.90;8.20;;;;;;;6.44;84.30;98706.54;106078;1315;140501;-53
2021/11/21 04:15:42;;;;;;;12.40;8.60;;;;;;;6.45;84.16;98711.92;106138;1315;22516;-53
2021/11/21 04:18:10;;;;;;;12.40;8.20;;;;;;;6.46;84.51;98708.02;106182;1316;137856;-53
2021/11/21 04:20:39;;;;;;;11.70;7.70;;;;;;;6.47;84.82;98712.96;106253;1316;22486;-53
2021/11/21 04:23:07;;;;;;;14.90;8.40;;;;;;;6.47;84.53;98712.11;106327;1316;22545;-53
2021/11/21 04:25:35;;;;;;;12.60;7.80;;;;;;;6.49;84.81;98713.70;106172;1313;137818;-53
2021/11/21 04:28:04;;;;;;;11.30;8.30;;;;;;;6.51;84.67;98711.20;106202;1315;22472;-53
2021/11/21 04:30:32;;;;;;;13.10;7.80;;;;;;;6.52;84.99;98712.20;106218;1316;141466;-53
2021/11/21 04:33:00;;;;;;;9.80;7.60;;;;;;;6.55;84.70;98709.48;106192;1316;22499;-53
2021/11/21 04:35:29;;;;;;;13.10;8.70;;;;;;;6.55;84.79;98702.50;106293;1315;22539;-53
2021/11/21 04:37:57;;;;;;;11.70;7.50;;;;;;;6.57;84.65;98700.75;106186;1316;138147;-53
2021/11/21 04:40:25;;;;;;;10.30;8.10;;;;;;;6.58;84.57;98696.27;106219;1315;22423;-54
2021/11/21 04:42:55;;;;;;;10.20;8.50;;;;;;;6.59;84.79;98695.02;106233;1316;140307;-53
2021/11/21 04:45:24;;;;;;;15.10;8.80;;;;;;;6.60;84.79;98692.35;106276;1315;22498;-53
2021/11/21 04:47:52;;;;;;;15.80;8.70;;;;;;;6.61;84.58;98687.05;106216;1315;138139;-53
2021/11/21 04:50:21;;;;;;;11.20;8.30;;;;;;;6.61;84.80;98684.50;106297;1315;23299;-53
2021/11/21 04:52:49;;;;;;;11.70;7.90;;;;;;;6.61;84.93;98686.73;106288;1315;22487;-53
2021/11/21 04:55:17;;;;;;;12.70;7.70;;;;;;;6.60;84.97;98686.82;106198;1315;138015;-53
2021/11/21 04:57:45;;;;;;;12.60;8.50;;;;;;;6.62;84.91;98694.21;106282;1313;22545;-53
2021/11/21 05:00:16;;;;;;;11.10;8.60;;;;;;;6.61;84.31;98690.63;105450;1315;138139;-54
2021/11/21 05:02:45;;;;;;;12.70;7.90;;;;;;;6.60;84.69;98690.77;106302;1315;22424;-53
2021/11/21 05:05:14;;;;;;;9.50;8.50;;;;;;;6.58;84.51;98690.96;106222;1316;22543;-53
2021/11/21 05:07:43;;;;;;;15.50;8.20;;;;;;;6.57;84.77;98691.77;106154;1315;138000;-53
2021/11/21 05:10:11;;;;;;;14.40;9.40;;;;;;;6.56;84.63;98692.61;105277;1321;23151;-53
2021/11/21 05:12:57;;;;;;;14.20;9.30;;;;;;;6.56;84.75;98696.83;106179;1315;139239;-53
2021/11/21 05:15:25;;;;;;;12.80;9.50;;;;;;;6.56;84.84;98698.73;106284;1316;22507;-54
2021/11/21 05:17:54;;;;;;;14.80;9.80;;;;;;;6.57;84.95;98700.80;106153;1315;138088;-53
2021/11/21 05:20:22;;;;;;;13.60;9.20;;;;;;;6.57;84.82;98700.30;106204;1315;22495;-54
2021/11/21 05:22:50;;;;;;;15.30;9.50;;;;;;;6.55;84.65;98693.58;106303;1315;22431;-53
2021/11/21 05:25:18;;;;;;;15.80;10.60;;;;;;;6.55;85.05;98688.11;106215;1315;139602;-54
2021/11/21 05:27:47;;;;;;;16.80;9.60;;;;;;;6.54;85.00;98687.01;106237;1316;22556;-54
2021/11/21 05:30:18;;;;;;;15.60;10.40;;;;;;;6.53;84.96;98685.75;106195;1315;139028;-53
2021/11/21 05:32:46;;;;;;;11.50;10.20;;;;;;;6.51;84.83;98685.93;106212;1315;22412;-53
2021/11/21 05:35:16;;;;;;;13.20;9.90;;;;;;;6.49;84.87;98679.00;106172;1316;23426;-56
2021/11/21 05:37:48;;;;;;;11.80;9.20;;;;;;;6.48;84.50;98679.64;106141;1315;139929;-53
2021/11/21 05:40:17;;;;;;;12.90;9.60;;;;;;;6.48;84.93;98673.85;106274;1316;22554;-54
2021/11/21 05:42:47;;;;;;;12.90;10.20;;;;;;;6.49;85.00;98670.44;106101;1315;137933;-53
2021/11/21 05:45:15;;;;;;;14.80;11.10;;;;;;;6.50;85.16;98668.07;106235;1315;23571;-53
2021/11/21 05:47:43;;;;;;;13.00;10.30;;;;;;;6.52;85.43;98669.55;106136;1315;139549;-53
2021/11/21 05:50:14;;;;;;;14.70;10.30;;;;;;;6.54;85.64;98670.61;106237;1315;23414;-52
2021/11/21 05:52:44;;;;;;;13.70;9.70;;;;;;;6.56;85.64;98672.10;106223;1315;22459;-52
2021/11/21 05:55:12;;;;;;;16.20;11.40;;;;;;;6.58;85.80;98672.73;105540;1319;137726;-52
2021/11/21 05:57:40;;;;;;;18.60;11.30;;;;;;;6.62;86.03;98670.39;106172;1316;23172;-52
2021/11/21 06:00:13;;;;;;;17.50;12.10;;;;;;;6.66;86.04;98667.08;103426;1315;138380;-53
2021/11/21 06:02:42;;;;;;;24.70;14.00;;;;;;;6.70;86.20;98665.66;106283;1315;23524;-52
2021/11/21 06:05:10;;;;;;;31.70;15.80;;;;;;;6.76;86.31;98663.95;106174;1315;22511;-52
2021/11/21 06:07:38;;;;;;;27.80;12.60;;;;;;;6.80;86.55;98663.86;106105;1315;139001;-52
2021/11/21 06:10:07;;;;;;;23.20;14.40;;;;;;;6.86;86.45;98664.26;106161;1316;22317;-52
2021/11/21 06:12:35;;;;;;;27.20;14.30;;;;;;;6.91;86.30;98663.23;106035;1315;138124;-52
2021/11/21 06:15:06;;;;;;;19.40;11.80;;;;;;;6.96;86.44;98667.92;106221;1316;22247;-52
2021/11/21 06:17:35;;;;;;;22.90;11.40;;;;;;;7.00;86.48;98657.25;106285;1313;22513;-52
2021/11/21 06:20:05;;;;;;;15.60;10.80;;;;;;;7.07;86.36;98653.09;106143;1315;137913;-53
2021/11/21 06:22:34;;;;;;;16.40;11.50;;;;;;;7.12;86.46;98651.14;106264;1316;22441;-52
2021/11/21 06:25:04;;;;;;;13.90;10.90;;;;;;;7.18;86.16;98650.92;106057;1315;138026;-52
2021/11/21 06:27:33;;;;;;;16.80;11.40;;;;;;;7.24;86.13;98650.80;106280;1313;22793;-52
2021/11/21 06:30:02;;;;;;;17.90;13.00;;;;;;;7.29;86.25;98648.26;105987;1315;139060;-53
2021/11/21 06:32:30;;;;;;;16.50;11.90;;;;;;;7.34;86.07;98649.13;106222;1315;22622;-53
2021/11/21 06:34:58;;;;;;;17.70;11.80;;;;;;;7.37;85.92;98638.95;106247;1316;23282;-55
2021/11/21 06:37:27;;;;;;;21.60;13.10;;;;;;;7.44;85.81;98652.11;106057;1315;139788;-53
2021/11/21 06:39:55;;;;;;;17.80;12.20;;;;;;;7.48;85.69;98649.45;106212;1315;22582;-54
2021/11/21 06:42:24;;;;;;;16.20;11.50;;;;;;;7.53;85.49;98648.39;106042;1317;139006;-54
2021/11/21 06:44:52;;;;;;;18.90;12.10;;;;;;;7.56;85.27;98642.94;106295;1316;22830;-54
2021/11/21 06:47:22;;;;;;;16.20;11.90;;;;;;;7.59;85.27;98640.36;106334;1313;22370;-54
2021/11/21 06:49:51;;;;;;;20.20;13.30;;;;;;;7.63;85.18;98645.38;106171;1315;139042;-54
2021/11/21 06:52:20;;;;;;;20.30;13.20;;;;;;;7.67;85.02;98640.69;106213;1315;22487;-54
2021/11/21 06:54:48;;;;;;;21.60;12.30;;;;;;;7.71;84.78;98642.77;106050;1315;138239;-54
2021/11/21 06:57:19;;;;;;;20.00;12.60;;;;;;;7.72;84.66;98639.38;106268;1315;23583;-54
2021/11/21 06:59:48;;;;;;;17.40;12.70;;;;;;;7.78;84.57;98645.71;106095;1316;139904;-54
2021/11/21 07:02:16;;;;;;;19.20;12.40;;;;;;;7.81;84.52;98645.92;106241;1315;22514;-54
2021/11/21 07:04:44;;;;;;;19.80;11.60;;;;;;;7.85;84.44;98645.05;106289;1316;22456;-54
2021/11/21 07:07:19;;;;;;;16.30;12.10;;;;;;;7.89;84.24;98644.80;105750;1319;139146;-54
2021/11/21 07:09:48;;;;;;;21.50;12.80;;;;;;;7.93;84.16;98647.52;106317;1315;22484;-54
2021/11/21 07:12:16;;;;;;;18.30;12.90;;;;;;;7.97;83.95;98644.23;106184;1316;142111;-54
2021/11/21 07:15:05;;;;;;;16.80;11.80;;;;;;;8.02;83.85;98647.20;106236;1315;22528;-54
2021/11/21 07:17:34;;;;;;;22.50;12.70;;;;;;;8.06;83.75;98651.36;106290;1316;22596;-54
2021/11/21 07:20:03;;;;;;;18.40;12.30;;;;;;;8.10;83.56;98647.63;106163;1317;137971;-54
2021/11/21 07:22:32;;;;;;;15.60;12.40;;;;;;;8.13;83.25;98642.59;105714;1322;22504;-54
2021/11/21 07:25:00;;;;;;;17.20;12.70;;;;;;;8.13;83.11;98637.56;106181;1315;141245;-54
2021/11/21 07:27:29;;;;;;;17.20;13.00;;;;;;;8.17;83.15;98644.52;106335;1315;23289;-54
2021/11/21 07:29:58;;;;;;;19.50;13.40;;;;;;;8.20;82.97;98645.46;106147;1315;139168;-54
2021/11/21 07:32:28;;;;;;;21.90;13.50;;;;;;;8.21;82.97;98649.16;106341;1315;23273;-53
2021/11/21 07:34:56;;;;;;;23.30;13.40;;;;;;;8.22;82.80;98651.48;106353;1315;22465;-54
2021/11/21 07:37:24;;;;;;;18.80;13.40;;;;;;;8.23;82.99;98648.34;105963;1315;138136;-54
2021/11/21 07:39:52;;;;;;;18.10;12.70;;;;;;;8.24;82.58;98648.50;105543;1315;22459;-54
2021/11/21 07:42:21;;;;;;;17.90;13.00;;;;;;;8.25;82.61;98647.70;106259;1316;138724;-54
2021/11/21 07:44:50;;;;;;;19.70;14.30;;;;;;;8.27;82.71;98648.90;106235;1315;22459;-54
2021/11/21 07:47:18;;;;;;;19.30;12.90;;;;;;;8.27;82.60;98645.00;106345;1315;22407;-54
2021/11/21 07:49:46;;;;;;;24.50;15.20;;;;;;;8.29;82.54;98647.23;106169;1316;139082;-54
2021/11/21 07:52:14;;;;;;;17.60;13.40;;;;;;;8.31;82.59;98647.52;106306;1313;22486;-54
2021/11/21 07:54:45;;;;;;;16.40;12.90;;;;;;;8.34;82.55;98644.54;105844;1319;138279;-54
2021/11/21 07:57:13;;;;;;;18.30;13.70;;;;;;;8.38;82.41;98645.29;106271;1316;22369;-54
2021/11/21 07:59:41;;;;;;;15.20;12.60;;;;;;;8.41;82.40;98644.98;106319;1316;22528;-54
2021/11/21 08:02:10;;;;;;;18.70;13.00;;;;;;;8.41;82.15;98641.46;106052;1316;138989;-54
2021/11/21 08:04:40;;;;;;;17.10;13.20;;;;;;;8.45;81.95;98642.13;106252;1316;22520;-54
2021/11/21 08:07:08;;;;;;;21.10;14.50;;;;;;;8.45;81.81;98641.42;106194;1315;139124;-54
2021/11/21 08:09:37;;;;;;;17.70;13.10;;;;;;;8.46;81.83;98647.07;106293;1315;22443;-54
2021/11/21 08:12:05;;;;;;;20.50;14.60;;;;;;;8.47;81.80;98649.36;105726;1316;140136;-54
2021/11/21 08:14:34;;;;;;;18.60;14.50;;;;;;;8.48;81.54;98651.06;106363;1313;22422;-54
2021/11/21 08:17:03;;;;;;;16.90;13.10;;;;;;;8.50;81.61;98652.09;106163;1315;22397;-54
2021/11/21 08:19:31;;;;;;;16.50;13.10;;;;;;;8.49;81.54;98647.84;106154;1316;138143;-54
2021/11/21 08:22:00;;;;;;;16.60;13.60;;;;;;;8.52;81.36;98652.08;106315;1315;22590;-54
2021/11/21 08:24:29;;;;;;;17.60;13.30;;;;;;;8.53;81.19;98648.71;106069;1315;139457;-54
2021/11/21 08:26:57;;;;;;;18.90;13.90;;;;;;;8.54;81.20;98648.01;106333;1315;22517;-54
2021/11/21 08:29:25;;;;;;;18.80;14.30;;;;;;;8.54;81.08;98647.25;106267;1315;22477;-54
2021/11/21 08:31:58;;;;;;;20.60;14.00;;;;;;;8.56;81.02;98644.16;106161;1315;138169;-54
2021/11/21 08:34:29;;;;;;;19.30;14.30;;;;;;;8.57;80.80;98642.17;106199;1316;23289;-54
2021/11/21 08:37:00;;;;;;;19.70;13.40;;;;;;;8.59;80.74;98645.33;106063;1315;138220;-54
2021/11/21 08:39:29;;;;;;;18.60;12.90;;;;;;;8.60;80.57;98643.65;105643;1316;22570;-53
2021/11/21 08:41:57;;;;;;;21.40;13.80;;;;;;;8.62;80.39;98647.02;106111;1315;140234;-54
2021/11/21 08:44:25;;;;;;;21.50;13.50;;;;;;;8.62;80.29;98649.25;106221;1315;22433;-54
2021/11/21 08:46:53;;;;;;;16.20;12.60;;;;;;;8.63;80.22;98650.98;106351;1316;23141;-54
2021/11/21 08:49:22;;;;;;;18.70;12.30;;;;;;;8.63;80.07;98655.99;106164;1315;142348;-54
2021/11/21 08:51:50;;;;;;;17.10;12.90;;;;;;;8.62;79.93;98649.89;105951;1316;22414;-54
2021/11/21 08:54:19;;;;;;;18.20;11.60;;;;;;;8.64;79.93;98647.30;106153;1316;139498;-54
2021/11/21 08:56:48;;;;;;;17.60;11.80;;;;;;;8.65;79.73;98645.24;106199;1316;24319;-54
2021/11/21 08:59:16;;;;;;;19.30;13.10;;;;;;;8.65;79.77;98644.80;106328;1315;23282;-54
2021/11/21 09:01:45;;;;;;;19.80;12.70;;;;;;;8.66;79.65;98639.68;106073;1316;138719;-54
2021/11/21 09:04:14;;;;;;;20.00;12.40;;;;;;;8.66;79.54;98639.25;106190;1319;22483;-54
2021/11/21 09:06:43;;;;;;;18.30;12.70;;;;;;;8.68;79.51;98638.17;105892;1319;138974;-54
2021/11/21 09:09:11;;;;;;;15.40;11.50;;;;;;;8.71;79.50;98631.61;106274;1315;22837;-54
2021/11/21 09:11:39;;;;;;;18.20;11.70;;;;;;;8.73;79.29;98632.82;106230;1316;22547;-54
2021/11/21 09:14:08;;;;;;;17.30;11.60;;;;;;;8.75;79.19;98633.75;106249;1315;138589;-54
2021/11/21 09:16:36;;;;;;;16.30;11.60;;;;;;;8.78;79.20;98636.54;106044;1315;22569;-54
2021/11/21 09:19:05;;;;;;;14.90;10.70;;;;;;;8.80;79.04;98632.84;105721;1320;138559;-54
2021/11/21 09:21:33;;;;;;;15.60;11.30;;;;;;;8.82;78.95;98632.08;106252;1315;22558;-54
2021/11/21 09:24:01;;;;;;;18.60;11.40;;;;;;;8.85;78.79;98627.14;106105;1315;140571;-54
2021/11/21 09:26:30;;;;;;;19.50;11.20;;;;;;;8.84;78.63;98622.10;106206;1316;22483;-54
2021/11/21 09:28:58;;;;;;;20.90;11.20;;;;;;;8.88;78.45;98624.44;106301;1316;23262;-54
2021/11/21 09:31:26;;;;;;;16.10;11.60;;;;;;;8.90;78.34;98625.20;106219;1316;138116;-54
2021/11/21 09:33:55;;;;;;;14.40;10.10;;;;;;;8.92;78.27;98623.42;106284;1315;23176;-54
2021/11/21 09:36:23;;;;;;;15.90;10.30;;;;;;;8.94;78.15;98625.00;106147;1315;139028;-54
2021/11/21 09:38:51;;;;;;;14.30;10.20;;;;;;;8.97;78.04;98627.80;106291;1315;22408;-54
2021/11/21 09:41:19;;;;;;;14.00;9.80;;;;;;;8.99;77.76;98624.34;106074;1315;22573;-54
2021/11/21 09:43:47;;;;;;;14.00;10.40;;;;;;;9.01;77.76;98619.08;106131;1315;138526;-54
2021/11/21 09:46:17;;;;;;;11.50;9.70;;;;;;;9.04;77.77;98614.80;106278;1315;22411;-54
2021/11/21 09:48:46;;;;;;;13.10;10.10;;;;;;;9.05;77.68;98615.34;106179;1315;137905;-54
2021/11/21 09:51:14;;;;;;;11.10;8.70;;;;;;;9.08;77.58;98617.09;105659;1321;22545;-53
2021/11/21 09:53:42;;;;;;;14.00;9.50;;;;;;;9.10;77.56;98614.34;106287;1315;22390;-53
2021/11/21 09:56:11;;;;;;;11.60;9.00;;;;;;;9.12;77.28;98614.02;106163;1315;139449;-54
2021/11/21 09:58:39;;;;;;;16.00;10.80;;;;;;;9.12;77.10;98613.42;106311;1316;23391;-54
2021/11/21 10:01:07;;;;;;;15.90;10.90;;;;;;;9.14;77.13;98613.59;106149;1315;138574;-54
2021/11/21 10:03:45;;;;;;;14.50;10.80;;;;;;;9.15;77.11;98608.16;106137;1316;22412;-54
2021/11/21 10:06:21;;;;;;;14.10;10.10;;;;;;;9.17;77.17;98600.23;106178;1315;138565;-54
2021/11/21 10:08:51;;;;;;;;;;;;;;;9.19;77.00;98602.52;106195;1315;23712;-54
2021/11/21 10:11:19;;;;;;;12.90;9.70;;;;;;;9.20;77.00;98604.15;106206;1315;22573;-54
2021/11/21 10:13:50;;;;;;;14.10;9.90;;;;;;;9.20;76.87;98604.00;106211;1316;139085;-54
2021/11/21 10:16:19;;;;;;;14.40;10.20;;;;;;;9.22;76.76;98603.88;105384;1319;23197;-54
2021/11/21 10:18:54;;;;;;;13.80;10.00;;;;;;;9.22;76.78;98598.23;105651;1315;139206;-54
2021/11/21 10:21:27;;;;;;;14.20;10.60;;;;;;;9.24;76.81;98594.52;106289;1315;22534;-54
2021/11/21 10:24:23;;;;;;;16.50;10.70;;;;;;;9.25;76.77;98596.09;106073;1315;139409;-53
2021/11/21 10:27:05;;;;;;;17.10;9.90;;;;;;;9.28;76.75;98593.80;106235;1316;27470;-54
2021/11/21 10:29:41;;;;;;;12.00;9.70;;;;;;;9.29;76.34;98587.23;106220;1315;22499;-54
2021/11/21 10:32:20;;;;;;;14.80;9.70;;;;;;;9.31;76.31;98586.80;106090;1315;138014;-54
2021/11/21 10:34:52;;;;;;;15.00;10.00;;;;;;;9.32;76.08;98583.12;106289;1319;22477;-54
2021/11/21 10:37:34;;;;;;;15.00;10.50;;;;;;;9.34;76.03;98584.80;106169;1316;138774;-54
2021/11/21 10:40:12;;;;;;;13.30;10.50;;;;;;;9.38;75.96;98582.39;104639;1315;24268;-53
2021/11/21 10:42:42;;;;;;;16.70;10.50;;;;;;;9.40;75.59;98582.11;106114;1316;138775;-54
2021/11/21 10:45:11;;;;;;;17.00;11.20;;;;;;;9.41;75.71;98577.50;106258;1315;22514;-54
2021/11/21 10:47:45;;;;;;;16.40;11.60;;;;;;;9.41;75.45;98576.63;106236;1315;22403;-54
2021/11/21 10:50:31;;;;;;;18.30;11.60;;;;;;;9.39;75.43;98571.52;106205;1315;138856;-54
2021/11/21 10:53:02;;;;;;;21.80;13.40;;;;;;;9.36;75.73;98569.42;106202;1315;22417;-54
2021/11/21 10:55:30;;;;;;;14.40;10.00;;;;;;;9.36;75.79;98567.14;106178;1315;138528;-53
2021/11/21 10:58:11;;;;;;;13.50;10.00;;;;;;;9.34;75.88;98563.32;106308;1316;23240;-53
2021/11/21 11:00:40;;;;;;;23.00;13.10;;;;;;;9.32;75.73;98563.55;106201;1315;140005;-54
2021/11/21 11:03:21;;;;;;;14.90;10.30;;;;;;;9.29;75.68;98563.59;106289;1320;22511;-54
2021/11/21 11:05:50;;;;;;;16.00;10.50;;;;;;;9.27;75.49;98558.41;106284;1316;22479;-54
2021/11/21 11:08:28;;;;;;;12.90;9.70;;;;;;;9.25;75.51;98557.82;106102;1315;137963;-54
2021/11/21 11:10:58;;;;;;;13.70;9.90;;;;;;;9.24;75.66;98553.85;106226;1316;23184;-54
2021/11/21 11:13:29;;;;;;;14.50;10.70;;;;;;;9.24;75.55;98549.23;106157;1316;138164;-54
2021/11/21 11:15:58;;;;;;;14.50;11.20;;;;;;;9.22;75.38;98545.67;106258;1315;24549;-54
2021/11/21 11:18:27;;;;;;;14.90;10.70;;;;;;;9.23;75.28;98545.77;106114;1315;139775;-54
2021/11/21 11:20:58;;;;;;;16.10;9.70;;;;;;;9.23;75.44;98548.05;106186;1316;22405;-54
2021/11/21 11:23:27;;;;;;;18.00;10.30;;;;;;;9.24;75.30;98549.95;106287;1315;22517;-54
2021/11/21 11:25:59;;;;;;;16.20;10.10;;;;;;;9.26;75.34;98547.98;106066;1316;139566;-54
2021/11/21 11:28:30;;;;;;;13.90;10.20;;;;;;;9.26;75.19;98548.75;106276;1315;22469;-54